sensor_id;sensor_type;location;lat;lon;timestamp;pressure;altitude;pressure_sealevel;temperature;humidity
34124;BME280;13153;52.316;21.166;2022-10-16T00:00:44;100500.75;;;18.91;54.88
34124;BME280;13153;52.316;21.166;2022-10-16T00:03:11;100504.31;;;18.91;54.98
34124;BME280;13153;52.316;21.166;2022-10-16T00:05:42;100500.72;;;18.98;54.80
34124;BME280;13153;52.316;21.166;2022-10-16T00:08:12;100502.50;;;18.93;54.88
34124;BME280;13153;52.316;21.166;2022-10-16T00:10:39;100500.72;;;18.95;54.79
34124;BME280;13153;52.316;21.166;2022-10-16T00:13:07;100502.50;;;18.96;54.83
34124;BME280;13153;52.316;21.166;2022-10-16T00:15:37;100506.06;;;18.97;54.53
34124;BME280;13153;52.316;21.166;2022-10-16T00:18:05;100498.06;;;18.97;54.44
34124;BME280;13153;52.316;21.166;2022-10-16T00:20:34;100498.03;;;19.00;54.57
34124;BME280;13153;52.316;21.166;2022-10-16T00:23:00;100490.06;;;18.97;54.43
34124;BME280;13153;52.316;21.166;2022-10-16T00:25:26;100495.38;;;19.00;54.32
34124;BME280;13153;52.316;21.166;2022-10-16T00:27:51;100497.13;;;19.02;54.43
34124;BME280;13153;52.316;21.166;2022-10-16T00:30:17;100494.50;;;18.98;54.19
34124;BME280;13153;52.316;21.166;2022-10-16T00:32:43;100495.41;;;18.94;54.46
34124;BME280;13153;52.316;21.166;2022-10-16T00:35:09;100495.38;;;18.98;54.52
34124;BME280;13153;52.316;21.166;2022-10-16T00:37:34;100496.28;;;18.96;54.40
34124;BME280;13153;52.316;21.166;2022-10-16T00:40:00;100500.75;;;18.88;54.56
34124;BME280;13153;52.316;21.166;2022-10-16T00:42:26;100501.69;;;18.80;54.75
34124;BME280;13153;52.316;21.166;2022-10-16T00:44:57;100499.00;;;18.85;54.83
34124;BME280;13153;52.316;21.166;2022-10-16T00:47:36;100506.97;;;18.90;54.79
34124;BME280;13153;52.316;21.166;2022-10-16T00:50:24;100514.97;;;18.91;54.80
34124;BME280;13153;52.316;21.166;2022-10-16T00:52:53;100517.66;;;18.90;55.03
34124;BME280;13153;52.316;21.166;2022-10-16T00:55:20;100520.34;;;18.80;55.38
34124;BME280;13153;52.316;21.166;2022-10-16T00:57:49;100526.59;;;18.78;55.35
34124;BME280;13153;52.316;21.166;2022-10-16T01:00:23;100526.53;;;18.87;55.70
34124;BME280;13153;52.316;21.166;2022-10-16T01:02:57;100538.13;;;18.82;56.22
34124;BME280;13153;52.316;21.166;2022-10-16T01:05:32;100533.72;;;18.71;56.60
34124;BME280;13153;52.316;21.166;2022-10-16T01:08:47;100533.72;;;18.73;57.27
34124;BME280;13153;52.316;21.166;2022-10-16T01:11:10;100529.31;;;18.66;57.50
34124;BME280;13153;52.316;21.166;2022-10-16T01:13:46;100540.84;;;18.66;57.85
34124;BME280;13153;52.316;21.166;2022-10-16T01:16:29;100543.53;;;18.65;58.24
34124;BME280;13153;52.316;21.166;2022-10-16T01:19:15;100538.19;;;18.51;58.71
34124;BME280;13153;52.316;21.166;2022-10-16T01:21:46;100532.88;;;18.51;58.89
34124;BME280;13153;52.316;21.166;2022-10-16T01:24:38;100537.31;;;18.51;59.20
34124;BME280;13153;52.316;21.166;2022-10-16T01:27:26;100532.84;;;18.56;58.67
34124;BME280;13153;52.316;21.166;2022-10-16T01:30:26;100530.22;;;18.51;58.83
34124;BME280;13153;52.316;21.166;2022-10-16T01:33:18;100539.13;;;18.47;59.23
34124;BME280;13153;52.316;21.166;2022-10-16T01:35:56;100537.38;;;18.41;59.24
34124;BME280;13153;52.316;21.166;2022-10-16T01:38:35;100543.59;;;18.43;59.39
34124;BME280;13153;52.316;21.166;2022-10-16T01:41:28;100547.09;;;18.48;59.36
34124;BME280;13153;52.316;21.166;2022-10-16T01:44:11;100547.97;;;18.49;59.30
34124;BME280;13153;52.316;21.166;2022-10-16T01:46:44;100548.88;;;18.49;59.24
34124;BME280;13153;52.316;21.166;2022-10-16T01:49:12;100554.19;;;18.54;58.98
34124;BME280;13153;52.316;21.166;2022-10-16T01:51:39;100552.41;;;18.58;58.98
34124;BME280;13153;52.316;21.166;2022-10-16T01:54:08;100556.88;;;18.60;59.01
34124;BME280;13153;52.316;21.166;2022-10-16T01:56:36;100563.94;;;18.60;58.96
34124;BME280;13153;52.316;21.166;2022-10-16T01:59:12;100550.63;;;18.57;59.03
34124;BME280;13153;52.316;21.166;2022-10-16T02:01:47;100541.75;;;18.55;59.20
34124;BME280;13153;52.316;21.166;2022-10-16T02:05:02;100539.97;;;18.57;59.18
34124;BME280;13153;52.316;21.166;2022-10-16T02:07:30;100547.97;;;18.49;59.46
34124;BME280;13153;52.316;21.166;2022-10-16T02:09:56;100552.47;;;18.45;59.56
34124;BME280;13153;52.316;21.166;2022-10-16T02:12:33;100556.00;;;18.47;59.39
34124;BME280;13153;52.316;21.166;2022-10-16T02:15:01;100549.81;;;18.41;59.72
34124;BME280;13153;52.316;21.166;2022-10-16T02:17:28;100548.03;;;18.41;59.80
34124;BME280;13153;52.316;21.166;2022-10-16T02:19:56;100547.16;;;18.42;59.61
34124;BME280;13153;52.316;21.166;2022-10-16T02:22:28;100544.50;;;18.39;59.73
34124;BME280;13153;52.316;21.166;2022-10-16T02:25:03;100548.97;;;18.24;60.05
34124;BME280;13153;52.316;21.166;2022-10-16T02:32:45;100535.66;;;18.19;60.21
34124;BME280;13153;52.316;21.166;2022-10-16T02:35:15;100537.44;;;18.19;59.96
34124;BME280;13153;52.316;21.166;2022-10-16T02:37:42;100539.19;;;18.24;60.09
34124;BME280;13153;52.316;21.166;2022-10-16T02:40:10;100543.63;;;18.21;60.20
34124;BME280;13153;52.316;21.166;2022-10-16T02:42:39;100549.88;;;18.15;60.38
34124;BME280;13153;52.316;21.166;2022-10-16T02:45:08;100545.41;;;18.17;60.49
34124;BME280;13153;52.316;21.166;2022-10-16T02:47:34;100540.97;;;18.14;60.54
34124;BME280;13153;52.316;21.166;2022-10-16T02:50:00;100542.75;;;18.17;60.70
34124;BME280;13153;52.316;21.166;2022-10-16T02:52:26;100544.53;;;18.10;60.69
34124;BME280;13153;52.316;21.166;2022-10-16T02:54:52;100541.00;;;18.11;60.56
34124;BME280;13153;52.316;21.166;2022-10-16T02:57:18;100540.09;;;18.14;60.68
34124;BME280;13153;52.316;21.166;2022-10-16T02:59:45;100550.75;;;18.14;60.45
34124;BME280;13153;52.316;21.166;2022-10-16T03:02:11;100550.75;;;18.05;60.35
34124;BME280;13153;52.316;21.166;2022-10-16T03:04:37;100553.41;;;18.12;60.04
34124;BME280;13153;52.316;21.166;2022-10-16T03:07:03;100560.50;;;18.15;60.20
34124;BME280;13153;52.316;21.166;2022-10-16T03:09:29;100552.53;;;18.15;60.17
34124;BME280;13153;52.316;21.166;2022-10-16T03:11:55;100557.84;;;18.13;60.18
34124;BME280;13153;52.316;21.166;2022-10-16T03:14:21;100563.19;;;18.09;60.26
34124;BME280;13153;52.316;21.166;2022-10-16T03:16:47;100564.06;;;18.03;60.06
34124;BME280;13153;52.316;21.166;2022-10-16T03:19:13;100569.41;;;18.00;60.23
34124;BME280;13153;52.316;21.166;2022-10-16T03:21:38;100569.41;;;18.03;60.26
34124;BME280;13153;52.316;21.166;2022-10-16T03:24:04;100566.75;;;18.05;60.08
34124;BME280;13153;52.316;21.166;2022-10-16T03:26:30;100574.72;;;18.09;59.86
34124;BME280;13153;52.316;21.166;2022-10-16T03:28:56;100572.06;;;18.08;59.87
34124;BME280;13153;52.316;21.166;2022-10-16T03:31:22;100590.69;;;18.02;59.92
34124;BME280;13153;52.316;21.166;2022-10-16T03:33:48;100579.16;;;18.06;59.48
34124;BME280;13153;52.316;21.166;2022-10-16T03:36:13;100583.59;;;18.11;59.62
34124;BME280;13153;52.316;21.166;2022-10-16T03:38:39;100581.81;;;18.12;59.61
34124;BME280;13153;52.316;21.166;2022-10-16T03:41:05;100580.03;;;18.19;59.13
34124;BME280;13153;52.316;21.166;2022-10-16T03:43:33;100582.72;;;18.19;59.19
34124;BME280;13153;52.316;21.166;2022-10-16T03:45:59;100586.25;;;18.14;59.27
34124;BME280;13153;52.316;21.166;2022-10-16T03:48:25;100586.25;;;18.14;59.25
34124;BME280;13153;52.316;21.166;2022-10-16T03:50:50;100580.06;;;18.12;59.57
34124;BME280;13153;52.316;21.166;2022-10-16T03:53:17;100583.59;;;18.04;59.42
34124;BME280;13153;52.316;21.166;2022-10-16T03:55:44;100590.69;;;17.99;59.67
34124;BME280;13153;52.316;21.166;2022-10-16T03:58:11;100587.16;;;18.03;59.36
34124;BME280;13153;52.316;21.166;2022-10-16T04:00:44;100596.91;;;18.04;59.46
34124;BME280;13153;52.316;21.166;2022-10-16T04:03:10;100591.59;;;18.10;59.35
34124;BME280;13153;52.316;21.166;2022-10-16T04:05:36;100604.03;;;18.08;59.33
34124;BME280;13153;52.316;21.166;2022-10-16T04:08:03;100594.25;;;18.10;59.26
34124;BME280;13153;52.316;21.166;2022-10-16T04:10:29;100590.69;;;18.11;59.32
34124;BME280;13153;52.316;21.166;2022-10-16T04:12:54;100587.16;;;18.13;59.12
34124;BME280;13153;52.316;21.166;2022-10-16T04:15:23;100576.50;;;18.15;59.28
34124;BME280;13153;52.316;21.166;2022-10-16T04:17:48;100576.50;;;18.13;58.93
34124;BME280;13153;52.316;21.166;2022-10-16T04:20:14;100581.81;;;18.15;58.92
34124;BME280;13153;52.316;21.166;2022-10-16T04:22:40;100580.94;;;18.04;58.87
34124;BME280;13153;52.316;21.166;2022-10-16T04:25:06;100578.28;;;18.01;59.03
34124;BME280;13153;52.316;21.166;2022-10-16T04:27:32;100588.94;;;18.01;58.96
34124;BME280;13153;52.316;21.166;2022-10-16T04:30:00;100589.81;;;17.97;59.08
34124;BME280;13153;52.316;21.166;2022-10-16T04:32:26;100587.16;;;17.92;59.13
34124;BME280;13153;52.316;21.166;2022-10-16T04:34:52;100596.06;;;17.88;59.09
34124;BME280;13153;52.316;21.166;2022-10-16T04:37:18;100604.03;;;17.87;59.12
34124;BME280;13153;52.316;21.166;2022-10-16T04:39:44;100603.16;;;17.88;59.17
34124;BME280;13153;52.316;21.166;2022-10-16T04:42:11;100603.13;;;17.94;59.06
34124;BME280;13153;52.316;21.166;2022-10-16T04:44:36;100599.59;;;17.76;59.22
34124;BME280;13153;52.316;21.166;2022-10-16T04:47:02;100599.59;;;17.78;59.30
34124;BME280;13153;52.316;21.166;2022-10-16T04:49:28;100601.38;;;17.87;59.12
34124;BME280;13153;52.316;21.166;2022-10-16T04:51:54;100609.38;;;17.82;59.17
34124;BME280;13153;52.316;21.166;2022-10-16T04:54:20;100615.56;;;17.73;59.28
34124;BME280;13153;52.316;21.166;2022-10-16T04:56:45;100619.13;;;17.72;59.34
34124;BME280;13153;52.316;21.166;2022-10-16T04:59:18;100618.22;;;17.70;59.40
34124;BME280;13153;52.316;21.166;2022-10-16T05:01:44;100612.00;;;17.70;59.08
34124;BME280;13153;52.316;21.166;2022-10-16T05:04:10;100621.72;;;17.65;59.51
34124;BME280;13153;52.316;21.166;2022-10-16T05:06:37;100626.16;;;17.63;59.48
34124;BME280;13153;52.316;21.166;2022-10-16T05:09:07;100626.22;;;17.67;59.53
34124;BME280;13153;52.316;21.166;2022-10-16T05:11:34;100615.56;;;17.72;59.11
34124;BME280;13153;52.316;21.166;2022-10-16T05:14:00;100626.22;;;17.70;59.26
34124;BME280;13153;52.316;21.166;2022-10-16T05:16:26;100629.69;;;17.60;59.67
34124;BME280;13153;52.316;21.166;2022-10-16T05:18:53;100623.47;;;17.52;59.71
34124;BME280;13153;52.316;21.166;2022-10-16T05:21:19;100630.59;;;17.58;59.58
34124;BME280;13153;52.316;21.166;2022-10-16T05:23:45;100632.38;;;17.63;59.47
34124;BME280;13153;52.316;21.166;2022-10-16T05:26:11;100639.50;;;17.67;59.30
34124;BME280;13153;52.316;21.166;2022-10-16T05:28:37;100643.94;;;17.65;59.37
34124;BME280;13153;52.316;21.166;2022-10-16T05:31:08;100655.53;;;17.89;59.15
34124;BME280;13153;52.316;21.166;2022-10-16T05:33:35;100658.16;;;18.05;58.41
34124;BME280;13153;52.316;21.166;2022-10-16T05:36:03;100659.06;;;18.12;58.08
34124;BME280;13153;52.316;21.166;2022-10-16T05:38:29;100658.16;;;18.07;58.22
34124;BME280;13153;52.316;21.166;2022-10-16T05:40:55;100660.81;;;18.05;58.23
34124;BME280;13153;52.316;21.166;2022-10-16T05:43:22;100662.59;;;17.93;58.49
34124;BME280;13153;52.316;21.166;2022-10-16T05:45:59;100659.06;;;17.91;58.63
34124;BME280;13153;52.316;21.166;2022-10-16T05:48:26;100650.16;;;18.01;58.38
34124;BME280;13153;52.316;21.166;2022-10-16T05:51:02;100662.59;;;18.11;58.12
34124;BME280;13153;52.316;21.166;2022-10-16T05:53:31;100649.28;;;18.08;57.92
34124;BME280;13153;52.316;21.166;2022-10-16T05:55:58;100650.19;;;18.13;58.10
34124;BME280;13153;52.316;21.166;2022-10-16T05:58:29;100649.28;;;18.12;57.90
34124;BME280;13153;52.316;21.166;2022-10-16T06:01:02;100649.28;;;18.20;57.71
34124;BME280;13153;52.316;21.166;2022-10-16T06:03:28;100655.50;;;18.34;57.94
34124;BME280;13153;52.316;21.166;2022-10-16T06:05:54;100658.13;;;18.56;56.97
34124;BME280;13153;52.316;21.166;2022-10-16T06:08:22;100668.78;;;18.71;56.36
34124;BME280;13153;52.316;21.166;2022-10-16T06:10:49;100678.56;;;18.78;55.94
34124;BME280;13153;52.316;21.166;2022-10-16T06:13:25;100678.53;;;18.89;55.80
34124;BME280;13153;52.316;21.166;2022-10-16T06:15:51;100683.75;;;19.14;55.30
34124;BME280;13153;52.316;21.166;2022-10-16T06:18:16;100683.66;;;19.42;54.51
34124;BME280;13153;52.316;21.166;2022-10-16T06:20:42;100686.09;;;19.83;53.79
34124;BME280;13153;52.316;21.166;2022-10-16T06:23:08;100693.88;;;20.18;53.03
34124;BME280;13153;52.316;21.166;2022-10-16T06:25:34;100687.47;;;20.34;51.93
34124;BME280;13153;52.316;21.166;2022-10-16T06:27:59;100694.44;;;20.58;51.67
34124;BME280;13153;52.316;21.166;2022-10-16T06:30:25;100688.06;;;20.70;51.03
34124;BME280;13153;52.316;21.166;2022-10-16T06:32:51;100685.25;;;20.82;50.26
34124;BME280;13153;52.316;21.166;2022-10-16T06:35:17;100690.34;;;21.06;50.14
34124;BME280;13153;52.316;21.166;2022-10-16T06:37:42;100686.63;;;21.21;49.59
34124;BME280;13153;52.316;21.166;2022-10-16T06:40:08;100696.34;;;21.30;49.32
34124;BME280;13153;52.316;21.166;2022-10-16T06:42:34;100703.47;;;21.31;49.20
34124;BME280;13153;52.316;21.166;2022-10-16T06:45:00;100705.88;;;21.51;48.60
34124;BME280;13153;52.316;21.166;2022-10-16T06:47:27;100711.13;;;21.58;48.88
34124;BME280;13153;52.316;21.166;2022-10-16T06:49:53;100714.66;;;21.62;48.58
34124;BME280;13153;52.316;21.166;2022-10-16T06:52:18;100700.94;;;21.85;47.82
34124;BME280;13153;52.316;21.166;2022-10-16T06:54:44;100705.38;;;21.86;47.58
34124;BME280;13153;52.316;21.166;2022-10-16T06:57:10;100705.38;;;21.86;47.94
34124;BME280;13153;52.316;21.166;2022-10-16T06:59:36;100707.47;;;21.64;47.95
34124;BME280;13153;52.316;21.166;2022-10-16T07:02:01;100704.75;;;21.68;48.35
34124;BME280;13153;52.316;21.166;2022-10-16T07:04:27;100705.50;;;21.77;48.09
34124;BME280;13153;52.316;21.166;2022-10-16T07:06:53;100720.34;;;22.02;47.60
34124;BME280;13153;52.316;21.166;2022-10-16T07:09:19;100718.47;;;22.07;47.19
34124;BME280;13153;52.316;21.166;2022-10-16T07:11:44;100728.06;;;22.23;47.13
34124;BME280;13153;52.316;21.166;2022-10-16T07:14:19;100730.59;;;22.32;46.90
34124;BME280;13153;52.316;21.166;2022-10-16T07:16:46;100732.47;;;22.27;46.63
34124;BME280;13153;52.316;21.166;2022-10-16T07:19:12;100731.34;;;22.40;46.79
34124;BME280;13153;52.316;21.166;2022-10-16T07:21:41;100732.47;;;22.27;46.57
34124;BME280;13153;52.316;21.166;2022-10-16T07:24:13;100755.19;;;21.99;47.33
34124;BME280;13153;52.316;21.166;2022-10-16T07:26:40;100748.41;;;21.73;47.80
34124;BME280;13153;52.316;21.166;2022-10-16T07:29:16;100745.13;;;21.52;48.45
34124;BME280;13153;52.316;21.166;2022-10-16T07:31:43;100740.25;;;21.10;49.40
34124;BME280;13153;52.316;21.166;2022-10-16T07:34:10;100729.81;;;20.85;50.00
34124;BME280;13153;52.316;21.166;2022-10-16T07:36:36;100726.44;;;20.67;50.50
34124;BME280;13153;52.316;21.166;2022-10-16T07:39:03;100724.72;;;20.60;50.97
34124;BME280;13153;52.316;21.166;2022-10-16T07:41:30;100738.19;;;20.47;51.34
34124;BME280;13153;52.316;21.166;2022-10-16T07:43:58;100722.97;;;20.55;50.96
34124;BME280;13153;52.316;21.166;2022-10-16T07:46:28;100725.50;;;20.73;51.02
34124;BME280;13153;52.316;21.166;2022-10-16T07:48:54;100727.94;;;20.91;50.51
34124;BME280;13153;52.316;21.166;2022-10-16T07:51:23;100727.16;;;20.80;50.22
34124;BME280;13153;52.316;21.166;2022-10-16T07:53:50;100721.88;;;20.77;50.91
34124;BME280;13153;52.316;21.166;2022-10-16T07:56:18;100716.53;;;20.77;50.44
34124;BME280;13153;52.316;21.166;2022-10-16T07:58:45;100708.44;;;20.82;50.98
34124;BME280;13153;52.316;21.166;2022-10-16T08:01:14;100711.88;;;20.93;50.72
34124;BME280;13153;52.316;21.166;2022-10-16T08:03:47;100712.66;;;21.05;50.11
34124;BME280;13153;52.316;21.166;2022-10-16T08:06:14;100705.38;;;21.18;50.18
34124;BME280;13153;52.316;21.166;2022-10-16T08:08:40;100704.41;;;21.27;49.65
34124;BME280;13153;52.316;21.166;2022-10-16T08:11:06;100704.34;;;21.31;49.85
34124;BME280;13153;52.316;21.166;2022-10-16T08:13:32;100702.63;;;21.27;49.84
34124;BME280;13153;52.316;21.166;2022-10-16T08:15:58;100716.00;;;21.26;50.20
34124;BME280;13153;52.316;21.166;2022-10-16T08:18:24;100728.38;;;21.36;50.39
34124;BME280;13153;52.316;21.166;2022-10-16T08:20:58;100732.56;;;21.57;49.76
34124;BME280;13153;52.316;21.166;2022-10-16T08:23:26;100739.41;;;21.79;49.53
34124;BME280;13153;52.316;21.166;2022-10-16T08:25:53;100747.31;;;21.90;48.93
34124;BME280;13153;52.316;21.166;2022-10-16T08:28:19;100747.03;;;22.08;48.92
34124;BME280;13153;52.316;21.166;2022-10-16T08:30:46;100747.72;;;22.22;48.54
34124;BME280;13153;52.316;21.166;2022-10-16T08:33:11;100745.88;;;22.27;48.00
34124;BME280;13153;52.316;21.166;2022-10-16T08:35:37;100745.03;;;22.22;47.79
34124;BME280;13153;52.316;21.166;2022-10-16T08:38:04;100750.50;;;22.16;48.04
34124;BME280;13153;52.316;21.166;2022-10-16T08:40:34;100755.13;;;22.05;48.45
34124;BME280;13153;52.316;21.166;2022-10-16T08:49:11;100756.25;;;21.89;49.11
34124;BME280;13153;52.316;21.166;2022-10-16T08:51:39;100748.88;;;22.04;49.18
34124;BME280;13153;52.316;21.166;2022-10-16T08:54:31;100751.47;;;22.11;49.11
34124;BME280;13153;52.316;21.166;2022-10-16T08:57:27;100755.81;;;22.19;48.98
34124;BME280;13153;52.316;21.166;2022-10-16T08:59:59;100761.09;;;22.25;48.70
34124;BME280;13153;52.316;21.166;2022-10-16T09:02:43;100772.63;;;22.30;48.29
34124;BME280;13153;52.316;21.166;2022-10-16T09:08:13;100762.94;;;22.20;48.54
34124;BME280;13153;52.316;21.166;2022-10-16T09:10:59;100775.16;;;22.41;49.33
34124;BME280;13153;52.316;21.166;2022-10-16T09:16:35;100767.19;;;22.90;49.21
34124;BME280;13153;52.316;21.166;2022-10-16T09:19:29;100774.13;;;23.02;48.07
34124;BME280;13153;52.316;21.166;2022-10-16T09:21:59;100763.78;;;22.78;48.29
34124;BME280;13153;52.316;21.166;2022-10-16T09:24:29;100745.66;;;22.93;47.92
34124;BME280;13153;52.316;21.166;2022-10-16T09:26:55;100749.81;;;23.10;48.08
34124;BME280;13153;52.316;21.166;2022-10-16T09:29:24;100748.63;;;23.24;47.60
34124;BME280;13153;52.316;21.166;2022-10-16T09:31:52;100748.97;;;23.08;47.64
34124;BME280;13153;52.316;21.166;2022-10-16T09:34:32;100745.38;;;23.09;47.86
34124;BME280;13153;52.316;21.166;2022-10-16T09:37:09;100754.16;;;23.15;47.63
34124;BME280;13153;52.316;21.166;2022-10-16T09:39:54;100748.81;;;23.14;47.41
34124;BME280;13153;52.316;21.166;2022-10-16T09:42:30;100750.78;;;23.07;47.97
34124;BME280;13153;52.316;21.166;2022-10-16T09:44:57;100752.72;;;22.99;47.87
34124;BME280;13153;52.316;21.166;2022-10-16T09:47:26;100754.50;;;22.98;48.27
34124;BME280;13153;52.316;21.166;2022-10-16T09:50:03;100763.41;;;23.00;47.94
34124;BME280;13153;52.316;21.166;2022-10-16T09:52:32;100766.97;;;23.02;48.51
34124;BME280;13153;52.316;21.166;2022-10-16T09:55:16;100761.94;;;22.83;48.63
34124;BME280;13153;52.316;21.166;2022-10-16T09:57:52;100768.06;;;22.91;48.66
34124;BME280;13153;52.316;21.166;2022-10-16T10:00:21;100761.81;;;22.90;48.80
34124;BME280;13153;52.316;21.166;2022-10-16T10:02:47;100757.31;;;22.91;48.54
34124;BME280;13153;52.316;21.166;2022-10-16T10:05:24;100763.50;;;22.96;49.08
34124;BME280;13153;52.316;21.166;2022-10-16T10:08:00;100758.91;;;23.02;49.06
34124;BME280;13153;52.316;21.166;2022-10-16T10:10:31;100760.38;;;23.17;48.49
34124;BME280;13153;52.316;21.166;2022-10-16T10:12:58;100757.56;;;23.25;48.65
34124;BME280;13153;52.316;21.166;2022-10-16T10:15:28;100757.50;;;23.28;48.47
34124;BME280;13153;52.316;21.166;2022-10-16T10:17:57;100763.50;;;23.41;48.55
34124;BME280;13153;52.316;21.166;2022-10-16T10:20:29;100759.72;;;23.51;47.99
34124;BME280;13153;52.316;21.166;2022-10-16T10:22:57;100751.63;;;23.52;47.76
34124;BME280;13153;52.316;21.166;2022-10-16T10:37:22;100742.00;;;23.42;48.47
34124;BME280;13153;52.316;21.166;2022-10-16T10:40:30;100729.25;;;23.52;48.29
34124;BME280;13153;52.316;21.166;2022-10-16T10:46:03;100731.03;;;23.54;47.76
34124;BME280;13153;52.316;21.166;2022-10-16T10:52:05;100745.09;;;23.21;48.83
34124;BME280;13153;52.316;21.166;2022-10-16T11:04:20;100728.91;;;23.25;48.79
34124;BME280;13153;52.316;21.166;2022-10-16T11:06:36;100729.28;;;23.07;48.68
34124;BME280;13153;52.316;21.166;2022-10-16T11:09:18;100725.53;;;23.14;49.11
34124;BME280;13153;52.316;21.166;2022-10-16T11:11:56;100732.53;;;23.23;49.12
34124;BME280;13153;52.316;21.166;2022-10-16T11:17:19;100733.06;;;23.42;48.84
34124;BME280;13153;52.316;21.166;2022-10-16T11:22:34;100731.97;;;23.50;48.88
34124;BME280;13153;52.316;21.166;2022-10-16T11:25:27;100727.28;;;23.63;48.68
34124;BME280;13153;52.316;21.166;2022-10-16T11:30:41;100733.25;;;23.74;48.44
34124;BME280;13153;52.316;21.166;2022-10-16T11:36:06;100730.44;;;23.80;48.05
34124;BME280;13153;52.316;21.166;2022-10-16T11:39:08;100733.38;;;23.69;48.05
34124;BME280;13153;52.316;21.166;2022-10-16T11:41:52;100738.53;;;23.79;48.12
34124;BME280;13153;52.316;21.166;2022-10-16T11:45:36;100737.72;;;23.75;47.79
34124;BME280;13153;52.316;21.166;2022-10-16T11:48:30;100735.00;;;23.77;47.92
34124;BME280;13153;52.316;21.166;2022-10-16T11:51:36;100734.28;;;23.68;48.09
34124;BME280;13153;52.316;21.166;2022-10-16T11:57:20;100727.47;;;23.54;48.40
34124;BME280;13153;52.316;21.166;2022-10-16T12:03:11;100717.56;;;23.56;48.45
34124;BME280;13153;52.316;21.166;2022-10-16T12:08:34;100719.53;;;23.46;48.75
34124;BME280;13153;52.316;21.166;2022-10-16T12:23:03;100735.47;;;23.95;47.62
34124;BME280;13153;52.316;21.166;2022-10-16T12:25:36;100736.22;;;24.02;47.90
34124;BME280;13153;52.316;21.166;2022-10-16T12:28:26;100743.09;;;24.15;47.36
34124;BME280;13153;52.316;21.166;2022-10-16T12:31:00;100742.00;;;24.25;47.58
34124;BME280;13153;52.316;21.166;2022-10-16T12:33:30;100739.03;;;24.34;47.03
34124;BME280;13153;52.316;21.166;2022-10-16T12:36:00;100751.72;;;24.29;46.83
34124;BME280;13153;52.316;21.166;2022-10-16T12:38:47;100744.50;;;24.31;47.06
34124;BME280;13153;52.316;21.166;2022-10-16T12:41:32;100743.72;;;24.26;46.47
34124;BME280;13153;52.316;21.166;2022-10-16T12:44:00;100743.78;;;24.23;46.65
34124;BME280;13153;52.316;21.166;2022-10-16T12:51:41;100758.06;;;24.27;46.90
34124;BME280;13153;52.316;21.166;2022-10-16T12:54:22;100760.84;;;24.22;47.04
34124;BME280;13153;52.316;21.166;2022-10-16T12:57:30;100766.34;;;24.18;46.83
34124;BME280;13153;52.316;21.166;2022-10-16T13:06:22;100761.31;;;24.02;47.36
34124;BME280;13153;52.316;21.166;2022-10-16T13:10:14;100765.91;;;23.97;47.37
34124;BME280;13153;52.316;21.166;2022-10-16T13:19:03;100761.38;;;23.99;47.39
34124;BME280;13153;52.316;21.166;2022-10-16T13:21:54;100764.81;;;24.06;47.45
34124;BME280;13153;52.316;21.166;2022-10-16T13:27:48;100774.53;;;24.12;47.03
34124;BME280;13153;52.316;21.166;2022-10-16T13:30:20;100779.88;;;24.13;47.14
34124;BME280;13153;52.316;21.166;2022-10-16T13:32:57;100784.44;;;24.10;47.09
34124;BME280;13153;52.316;21.166;2022-10-16T13:35:31;100784.63;;;24.02;47.54
34124;BME280;13153;52.316;21.166;2022-10-16T13:38:16;100782.97;;;23.95;47.60
34124;BME280;13153;52.316;21.166;2022-10-16T13:41:17;100777.78;;;23.87;47.58
34124;BME280;13153;52.316;21.166;2022-10-16T13:43:52;100784.16;;;23.82;48.50
34124;BME280;13153;52.316;21.166;2022-10-16T13:46:23;100783.38;;;23.77;48.32
34124;BME280;13153;52.316;21.166;2022-10-16T13:49:13;100787.06;;;23.71;49.04
34124;BME280;13153;52.316;21.166;2022-10-16T13:51:38;100784.59;;;23.62;48.63
34124;BME280;13153;52.316;21.166;2022-10-16T13:54:04;100785.63;;;23.56;48.89
34124;BME280;13153;52.316;21.166;2022-10-16T13:56:32;100794.69;;;23.49;49.44
34124;BME280;13153;52.316;21.166;2022-10-16T13:59:04;100792.97;;;23.45;49.60
34124;BME280;13153;52.316;21.166;2022-10-16T14:01:40;100793.91;;;23.43;49.75
34124;BME280;13153;52.316;21.166;2022-10-16T14:04:10;100780.56;;;23.38;50.10
34124;BME280;13153;52.316;21.166;2022-10-16T14:06:43;100775.25;;;23.35;49.92
34124;BME280;13153;52.316;21.166;2022-10-16T14:09:27;100776.22;;;23.32;50.05
34124;BME280;13153;52.316;21.166;2022-10-16T14:12:00;100779.94;;;23.24;50.38
34124;BME280;13153;52.316;21.166;2022-10-16T14:14:50;100787.03;;;23.28;50.17
34124;BME280;13153;52.316;21.166;2022-10-16T14:17:25;100780.88;;;23.23;50.25
34124;BME280;13153;52.316;21.166;2022-10-16T14:19:58;100787.19;;;23.20;50.36
34124;BME280;13153;52.316;21.166;2022-10-16T14:22:40;100788.19;;;23.15;50.49
34124;BME280;13153;52.316;21.166;2022-10-16T14:27:45;100791.88;;;23.11;50.81
34124;BME280;13153;52.316;21.166;2022-10-16T14:30:17;100790.00;;;23.13;50.63
34124;BME280;13153;52.316;21.166;2022-10-16T14:36:15;100806.06;;;23.16;50.64
34124;BME280;13153;52.316;21.166;2022-10-16T14:39:06;100806.97;;;23.15;50.71
34124;BME280;13153;52.316;21.166;2022-10-16T14:41:48;100810.56;;;23.14;50.84
34124;BME280;13153;52.316;21.166;2022-10-16T14:44:16;100810.72;;;23.08;51.22
34124;BME280;13153;52.316;21.166;2022-10-16T14:46:44;100808.06;;;23.06;51.23
34124;BME280;13153;52.316;21.166;2022-10-16T14:51:37;100807.09;;;23.10;51.26